Kezdőlap
METAR-TAF:

METAR-TAF

Repülőterek :

Caracas, Venezuela

földrajzi szélesség: 10-36N, földrajzi hosszúság: 066-59W, magasság: 43 m

Jelenlegi meteorológiai megfigyelések

A jelentés 31 perccel ezelõtt készült, 10:00 UTC
Szélcsend
Hőmérséklet 24°C
Páratartalom 89%
Légköri nyomás 1008 hPa
Látótávolság 10 km, vagy több
Szórványos felhőzet 1600 lábon

METAR: SVMI 161000Z 00000KT 9999 SCT016 24/22 Q1008

Idő: 06:31 (10:31 UTC)

Előrejelzés

A jelentés 6 órával és 31 perccel ezelõtt készült, 04:00 UTC
Az előrejelzés 16-én 06 óra UTC és 17-én 06 óra UTC között érvényes
Északi szél kt
Látótávolság 10 km, vagy több
Kevés felhő 1600 lábon
16-én 06 óra UTC és 16-én 10 óra UTC között fokozatosan kialakuló
Látótávolság 10 km, vagy több
felhőtlen 1500 m magasságban, és nincs gomolyfelhõ

TAF: SVMI 160400Z 1606/1706 00000KT 9999 FEW016 TX31/18Z TN23/08Z BECMG 1606/1610 CAVOK

Meteorológiai megfigyelések és előrejelzések több, mint 4000 repülőtéren (METAR és TAF jelentéseket).

A térképen piros és sárga pontok jelzik az elérhető meteorológiai állomásokat.

Mozgassa az egeret a pont fölött, hogy megjelenjen az állomás neve.

Azután kattintson az időjárási megfigyelések és előrejelzések megtekintéséhez.

A térkép megváltoztatása: kattintson a fekete keresztel jelölt zöld gombra ráközelítéshez, a vonallal jelölt zöld gombra távolításhoz, vagy a zöld nyilakra a szomszédos térképek eléréséhez.


METAR-TAF: